Time;durP1;ratioP1;P1;durP2;ratioP2;P2;SDS_P1;SDS_P2;PMS_P1;PMS_P2;Temp;Humidity;BMP_temperature;BMP_pressure;BME280_temperature;BME280_humidity;BME280_pressure;Samples;Min_cycle;Max_cycle;Signal;HPM_P1;HPM_P2
2022/06/15 00:02:15;;;;;;;3.17;1.65;;;;;;;;;;5047344;28;20203;-82
2022/06/15 00:04:44;;;;;;;1.92;1.40;;;;;;;;;;5041405;28;20200;-78
2022/06/15 00:07:11;;;;;;;3.42;1.63;;;;;;;;;;5046847;28;20240;-76
2022/06/15 00:09:38;;;;;;;2.45;1.50;;;;;;;;;;5046338;28;20202;-77
2022/06/15 00:12:07;;;;;;;2.50;2.03;;;;;;;;;;5037725;28;20207;-77
2022/06/15 00:14:34;;;;;;;3.90;1.30;;;;;;;;;;5040919;28;20647;-77
2022/06/15 00:17:01;;;;;;;2.17;1.33;;;;;;;;;;5042080;28;20222;-77
2022/06/15 00:19:28;;;;;;;2.00;1.20;;;;;;;;;;5045365;28;20196;-77
2022/06/15 00:21:57;;;;;;;2.40;1.30;;;;;;;;;;5045944;28;20199;-79
2022/06/15 00:24:24;;;;;;;2.42;1.25;;;;;;;;;;5044441;28;20207;-77
2022/06/15 00:26:51;;;;;;;3.35;1.50;;;;;;;;;;5046045;28;20254;-76
2022/06/15 00:29:18;;;;;;;2.22;1.50;;;;;;;;;;5039870;28;20199;-77
2022/06/15 00:31:45;;;;;;;1.63;1.20;;;;;;;;;;5044883;28;20199;-76
2022/06/15 00:34:12;;;;;;;4.03;1.95;;;;;;;;;;5054956;28;20191;-77
2022/06/15 00:36:40;;;;;;;3.08;1.42;;;;;;;;;;5036242;28;20222;-77
2022/06/15 00:39:08;;;;;;;2.47;1.70;;;;;;;;;;5045310;28;20200;-77
2022/06/15 00:41:36;;;;;;;2.65;1.63;;;;;;;;;;5044820;28;20215;-77
2022/06/15 00:44:23;;;;;;;1.98;1.63;;;;;;;;;;5046367;28;20195;-78
2022/06/15 00:46:53;;;;;;;2.65;1.50;;;;;;;;;;5040408;28;20290;-77
2022/06/15 00:49:22;;;;;;;2.58;1.45;;;;;;;;;;5050339;28;20206;-77
2022/06/15 00:51:51;;;;;;;1.73;1.40;;;;;;;;;;5043646;28;20648;-78
2022/06/15 00:54:18;;;;;;;4.40;1.50;;;;;;;;;;5052674;28;20187;-77
2022/06/15 00:56:46;;;;;;;2.30;1.50;;;;;;;;;;5050737;28;20227;-79
2022/06/15 00:59:14;;;;;;;3.10;1.30;;;;;;;;;;5043782;28;20199;-77
2022/06/15 01:01:41;;;;;;;2.95;1.73;;;;;;;;;;5044517;28;20215;-77
2022/06/15 01:04:10;;;;;;;2.13;1.50;;;;;;;;;;5047954;28;20195;-77
2022/06/15 01:06:41;;;;;;;2.05;1.55;;;;;;;;;;5041368;28;20191;-80
2022/06/15 01:09:14;;;;;;;3.08;1.52;;;;;;;;;;5038477;28;20196;-76
2022/06/15 01:11:49;;;;;;;2.72;1.45;;;;;;;;;;5048595;28;20205;-76
2022/06/15 01:14:33;;;;;;;2.17;1.42;;;;;;;;;;5043737;28;20203;-76
2022/06/15 01:17:05;;;;;;;1.90;1.52;;;;;;;;;;5050793;28;20222;-76
2022/06/15 01:19:53;;;;;;;1.80;1.25;;;;;;;;;;5050008;28;20689;-76
2022/06/15 01:22:27;;;;;;;1.98;1.40;;;;;;;;;;5044966;28;20666;-76
2022/06/15 01:25:06;;;;;;;9.52;1.98;;;;;;;;;;5049393;28;20209;-76
2022/06/15 01:27:51;;;;;;;3.05;1.70;;;;;;;;;;5041037;28;20192;-78
2022/06/15 01:30:26;;;;;;;4.28;2.25;;;;;;;;;;5042945;28;20201;-78
2022/06/15 01:33:01;;;;;;;7.05;2.05;;;;;;;;;;5050761;28;20206;-76
2022/06/15 01:35:34;;;;;;;2.00;1.40;;;;;;;;;;5043251;28;20215;-77
2022/06/15 01:38:19;;;;;;;1.67;1.40;;;;;;;;;;5037268;28;20536;-76
2022/06/15 01:40:48;;;;;;;2.90;2.03;;;;;;;;;;5035356;28;20466;-76
2022/06/15 01:43:17;;;;;;;2.85;1.48;;;;;;;;;;5044560;28;20214;-76
2022/06/15 01:45:47;;;;;;;4.15;1.50;;;;;;;;;;5040025;28;20202;-77
2022/06/15 01:48:14;;;;;;;2.45;1.50;;;;;;;;;;5048311;28;20191;-78
2022/06/15 01:50:44;;;;;;;3.63;2.50;;;;;;;;;;5044476;28;20693;-76
2022/06/15 01:53:14;;;;;;;4.25;1.80;;;;;;;;;;5037271;28;20249;-77
2022/06/15 01:55:43;;;;;;;2.92;1.30;;;;;;;;;;5044248;28;20601;-76
2022/06/15 01:58:11;;;;;;;2.30;1.70;;;;;;;;;;5051293;28;20202;-77
2022/06/15 02:00:38;;;;;;;2.40;1.70;;;;;;;;;;5045697;28;20207;-77
2022/06/15 02:03:10;;;;;;;2.63;1.45;;;;;;;;;;5037096;28;20195;-76
2022/06/15 02:05:42;;;;;;;2.00;1.55;;;;;;;;;;5046043;28;20202;-76
2022/06/15 02:08:12;;;;;;;6.53;1.70;;;;;;;;;;5041938;28;20191;-76
2022/06/15 02:10:44;;;;;;;2.15;1.92;;;;;;;;;;5052865;28;20669;-76
2022/06/15 02:13:14;;;;;;;1.65;1.55;;;;;;;;;;5039290;28;20203;-76
2022/06/15 02:15:43;;;;;;;1.98;1.50;;;;;;;;;;5041006;28;20195;-80
2022/06/15 02:18:14;;;;;;;2.95;1.58;;;;;;;;;;5045044;28;20791;-80
2022/06/15 02:20:45;;;;;;;3.75;1.70;;;;;;;;;;5047434;28;20207;-80
2022/06/15 02:23:13;;;;;;;2.53;1.85;;;;;;;;;;5050478;28;20642;-81
2022/06/15 02:25:41;;;;;;;3.25;1.73;;;;;;;;;;5050689;28;20195;-80
2022/06/15 02:28:08;;;;;;;2.33;1.63;;;;;;;;;;5043201;28;20195;-81
2022/06/15 02:30:35;;;;;;;2.47;1.80;;;;;;;;;;5037988;28;20218;-81
2022/06/15 02:33:04;;;;;;;2.97;1.50;;;;;;;;;;5041915;28;20620;-81
2022/06/15 02:35:32;;;;;;;2.55;1.58;;;;;;;;;;5050043;28;20666;-82
2022/06/15 02:38:00;;;;;;;2.33;1.77;;;;;;;;;;5038160;28;20219;-81
2022/06/15 02:40:27;;;;;;;3.30;1.40;;;;;;;;;;5052460;28;20694;-82
2022/06/15 02:42:54;;;;;;;2.88;1.52;;;;;;;;;;5043084;28;20747;-82
2022/06/15 02:45:23;;;;;;;3.72;1.70;;;;;;;;;;5036346;28;20207;-81
2022/06/15 02:47:51;;;;;;;3.08;1.98;;;;;;;;;;5046886;28;20265;-82
2022/06/15 02:50:20;;;;;;;1.98;1.77;;;;;;;;;;5041514;28;20639;-82
2022/06/15 02:52:52;;;;;;;2.30;1.60;;;;;;;;;;5037160;28;20199;-82
2022/06/15 02:55:20;;;;;;;2.17;1.55;;;;;;;;;;5050145;28;20226;-82
2022/06/15 02:57:49;;;;;;;3.05;1.40;;;;;;;;;;5047684;28;20265;-81
2022/06/15 03:00:17;;;;;;;3.97;1.50;;;;;;;;;;5042278;28;20203;-82
2022/06/15 03:02:44;;;;;;;2.75;2.00;;;;;;;;;;5042207;28;20195;-81
2022/06/15 03:05:11;;;;;;;2.47;1.73;;;;;;;;;;5045739;28;20191;-81
2022/06/15 03:07:39;;;;;;;7.82;2.45;;;;;;;;;;5046444;28;20591;-81
2022/06/15 03:10:08;;;;;;;2.78;1.55;;;;;;;;;;5042817;28;20199;-81
2022/06/15 03:12:35;;;;;;;6.32;1.77;;;;;;;;;;5042104;28;20679;-81
2022/06/15 03:15:02;;;;;;;2.63;1.20;;;;;;;;;;5050445;28;20202;-81
2022/06/15 03:17:29;;;;;;;3.85;1.80;;;;;;;;;;5046533;28;20521;-81
2022/06/15 03:19:56;;;;;;;4.63;1.75;;;;;;;;;;5044943;28;20195;-80
2022/06/15 03:22:24;;;;;;;3.15;2.13;;;;;;;;;;5037251;28;20282;-80
2022/06/15 03:24:51;;;;;;;3.85;2.05;;;;;;;;;;5051466;28;20206;-81
2022/06/15 03:27:19;;;;;;;1.70;1.40;;;;;;;;;;5044565;28;20198;-81
2022/06/15 03:29:47;;;;;;;2.13;1.92;;;;;;;;;;5047115;28;20203;-80
2022/06/15 03:32:15;;;;;;;7.43;2.42;;;;;;;;;;5033192;28;20643;-80
2022/06/15 03:34:42;;;;;;;1.58;1.40;;;;;;;;;;5047092;28;20607;-80
2022/06/15 03:37:10;;;;;;;4.90;1.65;;;;;;;;;;5039611;28;20721;-80
2022/06/15 03:39:37;;;;;;;2.78;1.65;;;;;;;;;;5039621;28;20286;-80
2022/06/15 03:42:09;;;;;;;3.35;2.05;;;;;;;;;;5037818;28;20226;-80
2022/06/15 03:44:37;;;;;;;3.65;1.70;;;;;;;;;;5037756;28;20202;-80
2022/06/15 03:47:05;;;;;;;4.40;1.77;;;;;;;;;;5043433;28;20542;-80
2022/06/15 03:49:32;;;;;;;2.13;1.70;;;;;;;;;;5051125;28;20238;-81
2022/06/15 03:51:59;;;;;;;2.95;1.58;;;;;;;;;;5047993;28;20202;-81
2022/06/15 03:54:26;;;;;;;1.92;1.20;;;;;;;;;;5048183;28;20265;-81
2022/06/15 03:56:53;;;;;;;3.50;2.20;;;;;;;;;;5048966;28;20697;-81
2022/06/15 03:59:21;;;;;;;2.65;1.80;;;;;;;;;;5049663;28;20197;-81
2022/06/15 04:01:50;;;;;;;1.45;1.35;;;;;;;;;;5045623;28;20720;-80
2022/06/15 04:04:17;;;;;;;2.30;1.52;;;;;;;;;;5039342;28;20566;-81
2022/06/15 04:06:45;;;;;;;2.28;1.55;;;;;;;;;;5043502;28;20647;-80
2022/06/15 04:09:11;;;;;;;2.60;1.50;;;;;;;;;;5033193;28;20226;-80
2022/06/15 04:14:23;;;;;;;2.00;1.33;;;;;;;;;;5041500;28;20275;-79
2022/06/15 04:16:54;;;;;;;2.88;1.80;;;;;;;;;;5047066;28;20267;-79
2022/06/15 04:19:21;;;;;;;5.47;2.45;;;;;;;;;;5039021;28;20306;-79
2022/06/15 04:21:48;;;;;;;4.80;1.73;;;;;;;;;;5030988;28;20203;-80
2022/06/15 04:24:15;;;;;;;3.08;1.92;;;;;;;;;;5043018;28;20679;-79
2022/06/15 04:26:43;;;;;;;2.45;1.70;;;;;;;;;;5045935;28;20404;-80
2022/06/15 04:29:10;;;;;;;4.40;1.80;;;;;;;;;;5045477;28;20207;-80
2022/06/15 04:31:39;;;;;;;1.85;1.60;;;;;;;;;;5040670;28;20290;-79
2022/06/15 04:34:07;;;;;;;3.85;2.08;;;;;;;;;;5044428;28;20202;-80
2022/06/15 04:36:35;;;;;;;2.20;1.63;;;;;;;;;;5048005;28;20211;-79
2022/06/15 04:39:02;;;;;;;2.95;2.05;;;;;;;;;;5037323;28;20685;-79
2022/06/15 04:41:29;;;;;;;3.60;1.85;;;;;;;;;;5047002;28;20241;-79
2022/06/15 04:43:57;;;;;;;1.63;1.40;;;;;;;;;;5047684;28;20199;-79
2022/06/15 04:46:24;;;;;;;2.20;1.60;;;;;;;;;;5037614;28;20199;-79
2022/06/15 04:48:51;;;;;;;3.65;1.80;;;;;;;;;;5042324;28;20203;-80
2022/06/15 04:51:21;;;;;;;4.22;1.75;;;;;;;;;;5046704;28;20214;-80
2022/06/15 04:53:48;;;;;;;2.20;2.00;;;;;;;;;;5039610;28;20199;-79
2022/06/15 04:56:16;;;;;;;3.53;1.80;;;;;;;;;;5046408;28;20195;-79
2022/06/15 04:58:43;;;;;;;3.30;1.88;;;;;;;;;;5038907;28;20595;-79
2022/06/15 05:01:10;;;;;;;2.15;1.45;;;;;;;;;;5037618;28;20211;-79
2022/06/15 05:03:37;;;;;;;2.65;1.40;;;;;;;;;;5046080;28;20199;-79
2022/06/15 05:06:09;;;;;;;1.60;1.45;;;;;;;;;;5041497;28;20589;-79
2022/06/15 05:08:37;;;;;;;2.72;1.98;;;;;;;;;;5045348;28;20281;-80
2022/06/15 05:11:04;;;;;;;6.35;2.22;;;;;;;;;;5041529;28;20663;-80
2022/06/15 05:13:32;;;;;;;2.15;1.83;;;;;;;;;;5040408;28;20264;-79
2022/06/15 05:15:59;;;;;;;3.35;2.20;;;;;;;;;;5045068;28;20203;-79
2022/06/15 05:18:26;;;;;;;1.90;1.30;;;;;;;;;;5052115;28;20215;-79
2022/06/15 05:20:53;;;;;;;2.85;1.60;;;;;;;;;;5045523;28;20709;-79
2022/06/15 05:23:20;;;;;;;3.35;1.90;;;;;;;;;;5044279;28;20664;-79
2022/06/15 05:25:49;;;;;;;2.08;1.60;;;;;;;;;;5051331;28;20210;-79
2022/06/15 05:28:16;;;;;;;3.67;1.80;;;;;;;;;;5047491;28;20191;-79
2022/06/15 05:30:43;;;;;;;2.38;1.52;;;;;;;;;;5041860;28;20198;-79
2022/06/15 05:33:10;;;;;;;2.85;1.90;;;;;;;;;;5047759;28;20195;-79
2022/06/15 05:35:37;;;;;;;2.72;1.40;;;;;;;;;;5039755;28;20262;-79
2022/06/15 05:38:04;;;;;;;6.75;1.90;;;;;;;;;;5047942;28;20701;-80
2022/06/15 05:40:31;;;;;;;4.10;1.65;;;;;;;;;;5051071;28;20195;-80
2022/06/15 05:43:00;;;;;;;3.20;1.65;;;;;;;;;;5045805;28;20230;-79
2022/06/15 05:45:27;;;;;;;2.55;1.55;;;;;;;;;;5041688;28;20203;-79
2022/06/15 05:47:54;;;;;;;1.88;1.60;;;;;;;;;;5040611;28;20196;-79
2022/06/15 05:50:21;;;;;;;1.48;1.23;;;;;;;;;;5053193;28;20199;-79
2022/06/15 05:52:48;;;;;;;3.35;1.48;;;;;;;;;;5036382;28;20202;-78
2022/06/15 05:55:15;;;;;;;3.83;1.50;;;;;;;;;;5046044;28;20847;-79
2022/06/15 05:57:42;;;;;;;2.08;1.65;;;;;;;;;;5043542;28;20649;-79
2022/06/15 06:00:11;;;;;;;2.70;1.42;;;;;;;;;;5050824;28;20225;-79
2022/06/15 06:02:40;;;;;;;1.75;1.27;;;;;;;;;;5046959;28;20677;-79
2022/06/15 06:05:07;;;;;;;4.30;1.65;;;;;;;;;;5038391;28;20264;-80
2022/06/15 06:07:34;;;;;;;5.00;2.17;;;;;;;;;;5046350;28;20195;-79
2022/06/15 06:10:02;;;;;;;1.58;1.30;;;;;;;;;;5046628;28;20257;-79
2022/06/15 06:12:29;;;;;;;1.95;1.23;;;;;;;;;;5039067;28;20203;-79
2022/06/15 06:14:56;;;;;;;2.75;1.60;;;;;;;;;;5044335;28;20198;-79
2022/06/15 06:17:25;;;;;;;3.50;2.03;;;;;;;;;;5043688;28;20680;-79
2022/06/15 06:19:52;;;;;;;3.03;1.50;;;;;;;;;;5046031;28;20195;-79
2022/06/15 06:22:19;;;;;;;4.65;1.30;;;;;;;;;;5043710;28;20209;-79
2022/06/15 06:24:46;;;;;;;2.05;1.20;;;;;;;;;;5042962;28;20203;-79
2022/06/15 06:27:14;;;;;;;2.40;1.38;;;;;;;;;;5036240;28;20204;-80
2022/06/15 06:29:41;;;;;;;2.47;1.42;;;;;;;;;;5045819;28;20677;-80
2022/06/15 06:32:10;;;;;;;1.50;1.25;;;;;;;;;;5041573;28;20663;-79
2022/06/15 06:34:39;;;;;;;3.40;1.75;;;;;;;;;;5045025;28;20624;-79
2022/06/15 06:37:07;;;;;;;2.30;1.60;;;;;;;;;;5039500;28;20547;-80
2022/06/15 06:39:35;;;;;;;2.45;1.55;;;;;;;;;;5044929;28;20538;-79
2022/06/15 06:42:03;;;;;;;2.03;1.52;;;;;;;;;;5045898;28;20224;-79
2022/06/15 06:44:30;;;;;;;2.92;1.50;;;;;;;;;;5046115;28;20523;-79
2022/06/15 06:46:57;;;;;;;2.58;1.67;;;;;;;;;;5043811;28;20687;-78
2022/06/15 06:49:25;;;;;;;1.60;1.40;;;;;;;;;;5046168;28;20285;-78
2022/06/15 06:51:53;;;;;;;1.73;1.20;;;;;;;;;;5033467;28;20523;-78
2022/06/15 06:54:22;;;;;;;1.47;1.10;;;;;;;;;;5052160;28;20440;-79
2022/06/15 06:56:49;;;;;;;2.47;1.40;;;;;;;;;;5044466;28;20469;-80
2022/06/15 06:59:16;;;;;;;2.53;1.60;;;;;;;;;;5043911;28;20493;-80
2022/06/15 07:01:45;;;;;;;2.93;1.40;;;;;;;;;;5040570;28;20469;-80
2022/06/15 07:04:13;;;;;;;1.97;1.40;;;;;;;;;;5050087;28;20441;-80
2022/06/15 07:06:40;;;;;;;2.10;1.73;;;;;;;;;;5036900;28;20478;-80
2022/06/15 07:09:08;;;;;;;1.20;1.10;;;;;;;;;;5043656;28;20472;-80
2022/06/15 07:11:35;;;;;;;2.23;1.37;;;;;;;;;;5045538;28;21049;-81
2022/06/15 07:14:03;;;;;;;1.40;1.20;;;;;;;;;;5040059;28;20817;-81
2022/06/15 07:16:30;;;;;;;3.10;1.53;;;;;;;;;;5039008;28;20833;-80
2022/06/15 07:18:57;;;;;;;1.97;1.60;;;;;;;;;;5047154;28;20488;-81
2022/06/15 07:21:25;;;;;;;4.50;1.70;;;;;;;;;;5045080;28;20462;-81
2022/06/15 07:23:55;;;;;;;2.60;1.20;;;;;;;;;;5041205;28;20954;-80
2022/06/15 07:26:25;;;;;;;1.70;1.27;;;;;;;;;;5041266;28;20458;-81
2022/06/15 07:28:52;;;;;;;1.60;1.10;;;;;;;;;;5048722;28;20438;-80
2022/06/15 07:31:20;;;;;;;1.60;1.40;;;;;;;;;;5031069;28;20454;-80
2022/06/15 07:33:47;;;;;;;1.40;1.30;;;;;;;;;;5036477;28;20548;-81
2022/06/15 07:36:15;;;;;;;1.97;1.13;;;;;;;;;;5039623;28;20474;-81
2022/06/15 07:38:42;;;;;;;1.10;1.00;;;;;;;;;;5032098;28;20970;-81
2022/06/15 07:41:09;;;;;;;2.20;1.40;;;;;;;;;;5048718;28;20445;-81
2022/06/15 07:43:39;;;;;;;1.83;1.30;;;;;;;;;;5045556;28;20460;-80
2022/06/15 07:46:06;;;;;;;3.00;1.50;;;;;;;;;;5040345;28;20457;-79
2022/06/15 07:51:26;;;;;;;2.73;1.37;;;;;;;;;;5033227;28;20437;-80
2022/06/15 07:53:53;;;;;;;1.73;1.20;;;;;;;;;;5035120;28;20469;-80
2022/06/15 07:56:20;;;;;;;2.50;1.10;;;;;;;;;;5043251;28;20453;-80
2022/06/15 07:58:48;;;;;;;3.53;1.17;;;;;;;;;;5041290;28;20482;-80
2022/06/15 08:01:15;;;;;;;1.60;1.37;;;;;;;;;;5036896;28;20473;-80
2022/06/15 08:03:42;;;;;;;1.83;1.17;;;;;;;;;;5045689;28;20462;-80
2022/06/15 08:06:09;;;;;;;2.13;1.50;;;;;;;;;;5036637;28;20468;-80
2022/06/15 08:08:36;;;;;;;1.67;1.00;;;;;;;;;;5045127;28;20484;-80
2022/06/15 08:11:03;;;;;;;1.57;1.40;;;;;;;;;;5043397;28;20454;-80
2022/06/15 08:13:30;;;;;;;2.27;1.20;;;;;;;;;;5039827;28;20465;-80
2022/06/15 08:15:59;;;;;;;2.70;1.00;;;;;;;;;;5043656;28;20462;-80
2022/06/15 08:18:28;;;;;;;1.47;0.80;;;;;;;;;;5047423;28;20523;-80
2022/06/15 08:20:57;;;;;;;2.67;1.27;;;;;;;;;;5040217;28;20485;-80
2022/06/15 08:23:25;;;;;;;2.20;1.40;;;;;;;;;;5048726;28;20457;-81
2022/06/15 08:25:56;;;;;;;2.50;1.00;;;;;;;;;;5043556;28;20469;-80
2022/06/15 08:28:24;;;;;;;2.03;1.10;;;;;;;;;;5048421;28;20469;-80
2022/06/15 08:30:52;;;;;;;2.03;1.40;;;;;;;;;;5045455;28;20458;-80
2022/06/15 08:33:21;;;;;;;2.23;1.40;;;;;;;;;;5042553;28;20862;-80
2022/06/15 08:35:49;;;;;;;1.67;1.30;;;;;;;;;;5043684;28;20473;-80
2022/06/15 08:38:17;;;;;;;1.77;1.40;;;;;;;;;;5046137;28;20478;-81
2022/06/15 08:40:47;;;;;;;2.80;1.40;;;;;;;;;;5042161;28;20449;-80
2022/06/15 08:43:17;;;;;;;2.37;1.10;;;;;;;;;;5041724;28;20481;-80
2022/06/15 08:45:47;;;;;;;2.07;1.10;;;;;;;;;;5050623;28;20462;-82
2022/06/15 08:48:20;;;;;;;1.37;1.20;;;;;;;;;;5037167;28;20465;-79
2022/06/15 08:50:51;;;;;;;3.80;1.00;;;;;;;;;;5052743;28;20488;-81
2022/06/15 08:53:21;;;;;;;3.47;1.60;;;;;;;;;;5040711;28;20470;-80
2022/06/15 08:55:51;;;;;;;1.77;1.30;;;;;;;;;;5044944;28;20437;-81
2022/06/15 08:58:22;;;;;;;2.00;1.30;;;;;;;;;;5047186;28;20851;-80
2022/06/15 09:00:50;;;;;;;1.30;0.90;;;;;;;;;;5037540;28;20462;-80
2022/06/15 09:03:24;;;;;;;1.93;1.40;;;;;;;;;;5050804;28;20503;-81
2022/06/15 09:06:01;;;;;;;2.40;1.33;;;;;;;;;;5044340;28;20469;-82
2022/06/15 09:08:43;;;;;;;3.63;1.77;;;;;;;;;;5044309;28;20553;-81
2022/06/15 09:11:13;;;;;;;1.57;1.10;;;;;;;;;;5049940;28;20457;-82
2022/06/15 09:13:44;;;;;;;3.53;1.43;;;;;;;;;;5040764;28;20493;-81
2022/06/15 09:16:15;;;;;;;1.90;1.17;;;;;;;;;;5037938;28;20450;-82
2022/06/15 09:18:44;;;;;;;4.00;1.30;;;;;;;;;;5048677;28;20989;-80
2022/06/15 09:21:14;;;;;;;1.20;1.00;;;;;;;;;;5035070;28;20462;-81
2022/06/15 09:23:42;;;;;;;2.60;1.57;;;;;;;;;;5043175;28;20461;-81
2022/06/15 09:26:11;;;;;;;1.97;1.40;;;;;;;;;;5044663;28;20887;-81
2022/06/15 09:28:41;;;;;;;2.30;1.10;;;;;;;;;;5047811;28;20453;-81
2022/06/15 09:31:11;;;;;;;1.37;1.07;;;;;;;;;;5042716;28;20890;-81
2022/06/15 09:33:41;;;;;;;4.50;1.20;;;;;;;;;;5046074;28;20472;-81
2022/06/15 09:36:10;;;;;;;1.37;1.10;;;;;;;;;;5051883;28;20515;-81
2022/06/15 09:38:39;;;;;;;2.80;1.10;;;;;;;;;;5036062;28;20487;-81
2022/06/15 09:41:10;;;;;;;1.30;1.00;;;;;;;;;;5033289;28;20454;-81
2022/06/15 09:43:41;;;;;;;1.30;1.20;;;;;;;;;;5046412;28;20458;-82
2022/06/15 09:46:11;;;;;;;3.83;1.20;;;;;;;;;;5044320;28;20444;-81
2022/06/15 09:48:46;;;;;;;1.60;1.50;;;;;;;;;;5048235;28;20498;-82
2022/06/15 09:51:15;;;;;;;1.20;1.00;;;;;;;;;;5043691;28;20864;-81
2022/06/15 09:53:50;;;;;;;1.70;1.23;;;;;;;;;;5044504;28;20461;-79
2022/06/15 09:56:18;;;;;;;2.43;1.30;;;;;;;;;;5037842;28;20468;-81
2022/06/15 09:58:48;;;;;;;4.83;1.73;;;;;;;;;;5040397;28;21038;-80
2022/06/15 10:01:16;;;;;;;1.30;1.10;;;;;;;;;;5042016;28;20956;-81
2022/06/15 10:03:44;;;;;;;2.23;1.57;;;;;;;;;;5046851;28;20442;-81
2022/06/15 10:06:17;;;;;;;2.40;1.43;;;;;;;;;;5033640;28;20473;-81
2022/06/15 10:08:46;;;;;;;2.00;1.20;;;;;;;;;;5041895;28;20495;-82
2022/06/15 10:11:15;;;;;;;3.97;1.53;;;;;;;;;;5042512;28;20458;-81
2022/06/15 10:13:43;;;;;;;2.97;1.40;;;;;;;;;;5046278;28;20454;-81
2022/06/15 10:16:19;;;;;;;1.40;1.23;;;;;;;;;;5044025;28;20498;-81
2022/06/15 10:18:48;;;;;;;4.80;1.63;;;;;;;;;;5044850;28;20486;-81
2022/06/15 10:21:20;;;;;;;2.20;1.20;;;;;;;;;;5038641;28;20837;-80
2022/06/15 10:23:55;;;;;;;1.40;1.10;;;;;;;;;;5043511;28;20954;-81
2022/06/15 10:26:40;;;;;;;2.80;1.60;;;;;;;;;;5041682;28;20466;-80
2022/06/15 10:29:23;;;;;;;1.30;1.07;;;;;;;;;;5033934;28;20461;-80
2022/06/15 10:31:58;;;;;;;1.63;1.40;;;;;;;;;;5041392;28;20541;-81
2022/06/15 10:34:27;;;;;;;2.40;1.70;;;;;;;;;;5044285;28;20851;-80
2022/06/15 10:36:55;;;;;;;2.27;1.47;;;;;;;;;;5032838;28;20477;-80
2022/06/15 10:39:25;;;;;;;3.27;1.37;;;;;;;;;;5049594;28;20485;-81
2022/06/15 10:41:53;;;;;;;3.20;1.53;;;;;;;;;;5033235;28;20488;-80
2022/06/15 10:44:27;;;;;;;2.07;1.30;;;;;;;;;;5041075;28;20470;-81
2022/06/15 10:46:56;;;;;;;1.60;1.20;;;;;;;;;;5041671;28;20457;-81
2022/06/15 10:49:23;;;;;;;2.13;1.20;;;;;;;;;;5049343;28;20452;-80
2022/06/15 10:51:51;;;;;;;1.60;1.30;;;;;;;;;;5043166;28;20829;-81
2022/06/15 10:54:30;;;;;;;2.57;1.83;;;;;;;;;;5046315;28;20546;-80
2022/06/15 11:02:45;;;;;;;1.60;1.20;;;;;;;;;;5041347;28;20536;-80
2022/06/15 11:05:14;;;;;;;2.33;1.33;;;;;;;;;;5033676;28;20457;-80
2022/06/15 11:07:43;;;;;;;3.77;1.73;;;;;;;;;;5040757;28;20457;-81
2022/06/15 11:10:14;;;;;;;2.40;1.50;;;;;;;;;;5042548;28;20968;-80
2022/06/15 11:12:43;;;;;;;6.13;1.73;;;;;;;;;;5044996;28;20461;-80
2022/06/15 11:15:24;;;;;;;1.93;1.70;;;;;;;;;;5045810;28;20476;-80
2022/06/15 11:18:05;;;;;;;2.20;1.23;;;;;;;;;;5058108;28;20943;-80
2022/06/15 11:20:37;;;;;;;2.13;1.40;;;;;;;;;;5036016;28;20822;-80
2022/06/15 11:23:08;;;;;;;1.47;1.30;;;;;;;;;;5041844;28;20461;-79
2022/06/15 11:25:40;;;;;;;3.20;1.80;;;;;;;;;;5031913;28;20462;-80
2022/06/15 11:28:11;;;;;;;2.17;1.10;;;;;;;;;;5041044;28;20453;-81
2022/06/15 11:30:41;;;;;;;2.50;1.33;;;;;;;;;;5036432;28;20459;-79
2022/06/15 11:33:12;;;;;;;3.43;1.57;;;;;;;;;;5046189;28;20526;-80
2022/06/15 11:35:42;;;;;;;1.83;1.50;;;;;;;;;;5030490;28;20948;-80
2022/06/15 11:38:17;;;;;;;1.83;1.57;;;;;;;;;;5040964;28;20458;-81
2022/06/15 11:40:47;;;;;;;3.07;1.90;;;;;;;;;;5031244;28;20485;-80
2022/06/15 11:43:17;;;;;;;3.73;1.73;;;;;;;;;;5044474;28;20489;-79
2022/06/15 11:45:53;;;;;;;1.80;1.40;;;;;;;;;;5041250;28;20921;-80
2022/06/15 11:48:27;;;;;;;1.90;1.23;;;;;;;;;;5041146;28;20479;-80
2022/06/15 11:50:58;;;;;;;1.63;1.37;;;;;;;;;;5033844;28;20460;-80
2022/06/15 11:53:30;;;;;;;1.30;1.20;;;;;;;;;;5035129;28;20969;-81
2022/06/15 11:56:00;;;;;;;2.83;1.80;;;;;;;;;;5037550;28;20461;-78
2022/06/15 11:58:36;;;;;;;4.80;1.30;;;;;;;;;;5041082;28;20457;-80
2022/06/15 12:01:08;;;;;;;3.03;1.40;;;;;;;;;;5036602;28;20463;-81
2022/06/15 12:03:44;;;;;;;2.83;1.60;;;;;;;;;;5036448;28;20469;-80
2022/06/15 12:06:14;;;;;;;1.77;1.40;;;;;;;;;;5043268;28;21006;-80
2022/06/15 12:08:47;;;;;;;1.77;1.67;;;;;;;;;;5038048;28;21017;-81
2022/06/15 12:14:06;;;;;;;2.27;2.00;;;;;;;;;;5041192;28;20436;-81
2022/06/15 12:16:38;;;;;;;6.30;1.90;;;;;;;;;;5035032;28;20468;-80
2022/06/15 12:19:10;;;;;;;2.40;1.47;;;;;;;;;;5038846;28;20822;-81
2022/06/15 12:21:41;;;;;;;3.30;1.20;;;;;;;;;;5028443;28;20996;-80
2022/06/15 12:24:11;;;;;;;5.83;1.60;;;;;;;;;;5049914;28;20818;-80
2022/06/15 12:26:45;;;;;;;1.93;1.20;;;;;;;;;;5045914;28;20464;-80
2022/06/15 12:29:25;;;;;;;2.70;1.50;;;;;;;;;;5045123;28;20465;-80
2022/06/15 12:31:58;;;;;;;2.33;1.60;;;;;;;;;;5046702;28;20991;-81
2022/06/15 12:34:30;;;;;;;3.60;1.80;;;;;;;;;;5050777;28;20536;-82
2022/06/15 12:37:00;;;;;;;2.97;1.90;;;;;;;;;;5043963;28;20469;-83
2022/06/15 12:39:31;;;;;;;4.20;1.60;;;;;;;;;;5049915;28;20485;-80
2022/06/15 12:42:13;;;;;;;3.50;1.83;;;;;;;;;;5046400;28;20859;-80
2022/06/15 12:44:45;;;;;;;2.60;1.73;;;;;;;;;;5047249;28;20453;-80
2022/06/15 12:47:13;;;;;;;6.10;1.67;;;;;;;;;;5042149;28;20979;-79
2022/06/15 12:49:45;;;;;;;2.37;1.73;;;;;;;;;;5050835;28;20777;-81
2022/06/15 12:52:14;;;;;;;6.23;1.90;;;;;;;;;;5052026;28;21029;-81
2022/06/15 12:54:49;;;;;;;4.93;1.50;;;;;;;;;;5050166;28;20484;-81
2022/06/15 12:57:21;;;;;;;1.50;1.40;;;;;;;;;;5049178;28;20461;-81
2022/06/15 12:59:52;;;;;;;3.93;1.53;;;;;;;;;;5048879;28;20984;-81
2022/06/15 13:02:21;;;;;;;3.27;1.37;;;;;;;;;;5045018;28;20935;-81
2022/06/15 13:04:57;;;;;;;2.77;1.60;;;;;;;;;;5052425;28;20972;-82
2022/06/15 13:07:26;;;;;;;2.13;1.57;;;;;;;;;;5040536;28;20956;-81
2022/06/15 13:10:11;;;;;;;2.00;1.43;;;;;;;;;;5049474;28;20457;-81
2022/06/15 13:12:42;;;;;;;2.67;1.93;;;;;;;;;;5038007;28;20453;-81
2022/06/15 13:15:17;;;;;;;2.47;1.50;;;;;;;;;;5051446;28;20465;-81
2022/06/15 13:18:08;;;;;;;1.63;1.53;;;;;;;;;;5048425;28;20444;-81
2022/06/15 13:20:36;;;;;;;1.70;1.40;;;;;;;;;;5044961;28;21021;-81
2022/06/15 13:23:03;;;;;;;1.70;1.47;;;;;;;;;;5043832;28;20467;-82
2022/06/15 13:25:30;;;;;;;2.83;1.90;;;;;;;;;;5044024;28;20462;-81
2022/06/15 13:28:15;;;;;;;2.53;1.70;;;;;;;;;;5028158;28;20803;-81
2022/06/15 13:30:54;;;;;;;3.40;1.57;;;;;;;;;;5032493;28;20500;-81
2022/06/15 13:33:22;;;;;;;2.77;1.80;;;;;;;;;;5044221;28;20548;-81
2022/06/15 13:36:09;;;;;;;2.57;2.00;;;;;;;;;;5036195;28;20477;-81
2022/06/15 13:38:38;;;;;;;2.10;1.30;;;;;;;;;;5045559;28;20469;-81
2022/06/15 13:41:11;;;;;;;3.83;1.80;;;;;;;;;;5032984;28;20933;-81
2022/06/15 13:43:57;;;;;;;1.77;1.50;;;;;;;;;;5039302;28;20462;-81
2022/06/15 13:46:31;;;;;;;2.43;1.50;;;;;;;;;;5039773;28;20466;-82
2022/06/15 13:49:01;;;;;;;3.10;1.67;;;;;;;;;;5045428;28;20445;-82
2022/06/15 13:51:30;;;;;;;4.53;1.90;;;;;;;;;;5043281;28;20948;-81
2022/06/15 13:54:03;;;;;;;2.13;1.70;;;;;;;;;;5041083;28;21028;-81
2022/06/15 13:56:32;;;;;;;2.60;1.57;;;;;;;;;;5044879;28;20454;-81
2022/06/15 13:59:13;;;;;;;3.20;1.60;;;;;;;;;;5044836;28;20457;-80
2022/06/15 14:02:00;;;;;;;2.90;1.77;;;;;;;;;;5035182;28;20466;-81
2022/06/15 14:04:41;;;;;;;1.77;1.67;;;;;;;;;;5036498;28;20600;-80
2022/06/15 14:07:16;;;;;;;2.60;1.63;;;;;;;;;;5044753;28;20463;-81
2022/06/15 14:09:50;;;;;;;2.00;1.50;;;;;;;;;;5047632;28;20458;-81
2022/06/15 14:12:32;;;;;;;1.70;1.53;;;;;;;;;;5045889;28;20467;-80
2022/06/15 14:15:09;;;;;;;2.00;1.33;;;;;;;;;;5044104;28;21081;-80
2022/06/15 14:17:46;;;;;;;1.93;1.43;;;;;;;;;;5043485;28;21014;-81
2022/06/15 14:20:17;;;;;;;3.23;1.40;;;;;;;;;;5042278;28;20497;-81
2022/06/15 14:22:45;;;;;;;1.90;1.50;;;;;;;;;;5046052;28;20486;-81
2022/06/15 14:25:17;;;;;;;3.33;1.57;;;;;;;;;;5044417;28;20462;-81
2022/06/15 14:27:50;;;;;;;2.30;1.57;;;;;;;;;;5037469;28;20465;-81
2022/06/15 14:30:23;;;;;;;2.10;1.50;;;;;;;;;;5046312;28;20490;-81
2022/06/15 14:32:57;;;;;;;3.23;1.93;;;;;;;;;;5047118;28;20465;-81
2022/06/15 14:35:24;;;;;;;1.40;1.30;;;;;;;;;;5042719;28;20567;-80
2022/06/15 14:37:51;;;;;;;2.10;1.60;;;;;;;;;;5043321;28;20556;-81
2022/06/15 14:40:28;;;;;;;2.10;1.90;;;;;;;;;;5049350;28;20509;-80
2022/06/15 14:42:55;;;;;;;2.43;1.63;;;;;;;;;;5042029;28;20495;-81
2022/06/15 14:45:23;;;;;;;2.80;1.93;;;;;;;;;;5048323;28;20461;-81
2022/06/15 14:47:51;;;;;;;3.30;1.50;;;;;;;;;;5033887;28;20480;-81
2022/06/15 14:50:18;;;;;;;3.40;1.40;;;;;;;;;;5050658;28;20441;-81
2022/06/15 14:52:45;;;;;;;2.00;1.80;;;;;;;;;;5046850;28;20953;-80
2022/06/15 14:55:17;;;;;;;1.90;1.40;;;;;;;;;;5046180;28;20956;-80
2022/06/15 14:57:45;;;;;;;2.30;1.53;;;;;;;;;;5043923;28;20515;-80
2022/06/15 15:00:20;;;;;;;2.37;1.97;;;;;;;;;;5045549;28;20477;-80
2022/06/15 15:02:48;;;;;;;2.40;1.70;;;;;;;;;;5053919;28;20455;-80
2022/06/15 15:05:17;;;;;;;2.63;1.63;;;;;;;;;;5047460;28;20449;-80
2022/06/15 15:10:32;;;;;;;7.50;2.17;;;;;;;;;;5045169;28;20441;-81
2022/06/15 15:13:24;;;;;;;2.80;1.60;;;;;;;;;;5039618;28;20465;-80
2022/06/15 15:15:54;;;;;;;3.50;1.60;;;;;;;;;;5027738;28;20470;-81
2022/06/15 15:18:23;;;;;;;2.80;1.80;;;;;;;;;;5047327;28;20495;-80